の過去48時間の天気

Atyrau Airport

現在時刻: 10/19 20:25 +05 (10/19 15:25 UTC) 以下の時間は現地時間です。

過去48時間のMETAR気象情報
時間 風向 風速(m/s) 視程 気温(℃) 湿度(%) 気圧(hPa) 天気現象
19 20:00 西北西 4 10km以上 13 47 1012
19 19:30 西北西 4 10km以上 14 44 1012
19 19:00 西北西 4 10km以上 14 44 1012
19 18:30 西北西 7 10km以上 15 41 1012
19 18:00 西北西 8 10km以上 16 42 1012
19 17:30 西北西 7 10km以上 16 45 1011
19 17:00 西北西 7 10km以上 17 45 1011
19 16:30 西北西 7 10km以上 18 45 1011
19 16:00 西北西 7 10km以上 18 49 1011
19 15:30 西北西 7 10km以上 17 55 1011
19 15:00 西北西 7 10km以上 17 59 1011
19 14:30 西北西 6 10km以上 17 59 1011
19 14:00 西北西 6 10km以上 18 52 1012
19 13:30 西北西 6 10km以上 18 52 1011
19 13:00 西北西 5 10km以上 18 52 1012
19 12:30 北西 5 10km以上 17 55 1012
19 12:00 北西 4 10km以上 17 55 1012
19 11:30 北西 4 10km以上 16 63 1012
19 11:00 北西 4 10km以上 14 72 1012
19 10:30 北西 3 5000m 13 82 1012 もや
19 10:00 西 3 5000m 12 88 1012 もや
19 09:30 西南西 2 5000m 12 88 1012 もや
19 09:00 南西 3 5000m 11 94 1011 もや
19 08:30 南西 2 5000m 10 100 1011 もや
19 08:00 2 5000m 10 100 1011 もや
19 07:50 2 3000m 10 100 1011 もや
19 07:30 南南西 3 1500m 10 100 1011 もや
19 07:22 南南西 2 800m 10 100 1011
19 07:00 2 400m 10 100 1011
19 06:30 2 600m 10 100 1011
19 06:00 南南西 2 100m 11 94 1011
19 05:54 南南西 2 300m 11 94 1011
19 05:43 3 800m 11 94 1011
19 05:30 南南西 3 3000m 11 94 1011 もや
19 05:00 3 5000m 11 87 1011 もや
19 04:30 2 5000m 11 87 1011 もや
19 04:00 南南西 2 5000m 11 94 1011 もや
19 03:30 西南西 2 5000m 12 88 1011 もや
19 03:00 南西 2 5000m 12 94 1011 もや
19 02:30 西南西 2 5000m 12 94 1011 もや
19 02:00 南西 4 5000m 13 88 1012 もや
19 01:30 南西 3 5000m 13 88 1012 もや
19 01:00 西南西 3 10km以上 13 82 1012
19 00:30 南西 3 10km以上 13 77 1012
19 00:00 3 10km以上 13 77 1012
18 23:30 南南西 3 10km以上 13 77 1012
18 23:00 南南西 3 10km以上 13 67 1012
18 22:30 南南西 3 10km以上 12 62 1012
18 22:00 南南西 2 10km以上 12 58 1012
18 21:30 南南西 3 10km以上 12 54 1012
18 21:00 3 10km以上 12 50 1012
18 20:30 3 10km以上 12 47 1012
18 20:00 南南西 2 10km以上 13 47 1012
18 19:30 南南西 3 10km以上 13 44 1012
18 19:00 南南東 4 10km以上 14 41 1012
18 18:30 南南東 4 10km以上 14 44 1012
18 18:00 南南東 5 10km以上 14 41 1012
18 17:30 6 10km以上 15 36 1012 弱いしゅう雨
18 17:00 6 10km以上 15 36 1012
18 16:30 6 10km以上 15 36 1012
18 16:00 7 10km以上 15 36 1012
18 15:30 南南東 6 10km以上 15 36 1012
18 15:00 7 10km以上 15 39 1012
18 14:30 南南東 7 10km以上 16 36 1013
18 14:00 南南東 7 10km以上 16 36 1013
18 13:30 南南東 7 10km以上 16 36 1013
18 13:00 南南東 7 10km以上 15 39 1013
18 12:30 南南東 7 10km以上 16 36 1014
18 12:00 南南東 7 10km以上 15 41 1014
18 11:30 南南東 7 10km以上 15 41 1014
18 11:00 南南東 7 10km以上 14 44 1014
18 10:30 南東 7 10km以上 12 50 1014
18 10:00 南東 7 10km以上 11 54 1014
18 09:30 南東 9 10km以上 11 54 1014
18 09:00 南東 9 10km以上 10 58 1013
18 08:30 南東 8 10km以上 10 58 1013
18 08:00 南東 7 10km以上 10 58 1013
18 07:30 南東 8 10km以上 10 58 1014
18 07:00 南東 9 10km以上 11 54 1014
18 06:30 南東 8 10km以上 11 54 1014
18 06:00 南東 7 10km以上 10 58 1014
18 05:30 南東 7 10km以上 10 58 1014
18 05:00 南東 8 10km以上 11 54 1014
18 04:30 南東 7 10km以上 11 50 1015
18 04:00 南東 8 10km以上 11 50 1015
18 03:30 南東 7 10km以上 11 50 1015
18 03:00 南東 7 10km以上 12 47 1015
18 02:30 南東 6 10km以上 12 47 1015
18 02:00 南南東 7 10km以上 12 47 1016
18 01:30 南南東 7 10km以上 12 47 1016
18 01:00 南南東 7 10km以上 13 44 1016
18 00:30 南南東 7 10km以上 13 41 1016
18 00:00 南東 8 10km以上 14 38 1016
17 23:30 南東 8 10km以上 14 38 1016
17 23:00 南東 8 10km以上 15 36 1016
17 22:30 南東 9 10km以上 15 36 1016
17 22:00 南東 9 10km以上 16 31 1016
17 21:30 南東 10 10km以上 16 31 1016
17 21:00 南東 9 10km以上 17 27 1016
17 20:30 南東 8 10km以上 17 27 1016
UATG 191500Z 29004MPS 9999 SCT033CB 13/02 Q1012 R32/CLRD70 NOSIG RMK QFE761/1015
UATG 191430Z 29004MPS 9999 SCT033CB 14/02 Q1012 R32/CLRD70 NOSIG RMK QFE761/1015
UATG 191400Z 29004MPS 9999 SCT033CB 14/02 Q1012 R32/CLRD70 NOSIG RMK QFE761/1015
UATG 191330Z 30007MPS 9999 SCT033CB 15/02 Q1012 R32/CLRD70 NOSIG RMK QFE761/1014
UATG 191300Z 30008MPS 9999 SCT033CB 16/03 Q1012 R32/CLRD70 NOSIG RMK QFE760/1014
UATG 191230Z 30007MPS 9999 SCT033CB 16/04 Q1011 R32/CLRD70 NOSIG RMK QFE760/1014
UATG 191200Z 29007MPS 9999 SCT033CB 17/05 Q1011 R32/CLRD70 NOSIG RMK QFE760/1014
UATG 191130Z 30007MPS 9999 BKN033CB 18/06 Q1011 R32/CLRD70 NOSIG RMK QFE760/1014
UATG 191100Z 30007MPS 9999 BKN033CB 18/07 Q1011 R32/CLRD70 NOSIG RMK QFE760/1014
UATG 191030Z 30007MPS 9999 BKN033CB 17/08 Q1011 R32/CLRD70 NOSIG RMK QFE760/1014
UATG 191000Z 29007MPS 9999 BKN033CB 17/09 Q1011 R32/CLRD70 NOSIG RMK QFE760/1014
UATG 190930Z 30006MPS 9999 SCT033CB 17/09 Q1011 R32/CLRD70 NOSIG RMK QFE760/1014
UATG 190900Z 30006MPS 9999 SCT033CB 18/08 Q1012 R32/CLRD70 NOSIG RMK QFE760/1014
UATG 190830Z 30006MPS CAVOK 18/08 Q1011 R32/CLRD70 NOSIG RMK QFE760/1014
UATG 190800Z 30005MPS CAVOK 18/08 Q1012 R32/CLRD70 NOSIG RMK QFE760/1014
UATG 190730Z 32005MPS CAVOK 17/08 Q1012 R32/CLRD70 NOSIG RMK QFE760/1014
UATG 190700Z 32004MPS CAVOK 17/08 Q1012 R32/CLRD70 NOSIG RMK QFE760/1014
UATG 190630Z 32004MPS 9999 SCT033CB 16/09 Q1012 R32/CLRD70 NOSIG RMK QFE761/1014
UATG 190600Z 31004MPS 9999 SCT033CB 14/09 Q1012 R32/CLRD70 NOSIG RMK QFE761/1014
UATG 190530Z 31003MPS 5000 BR SCT033CB 13/10 Q1012 R32/CLRD70 NOSIG RMK QFE761/1014
UATG 190500Z 27003MPS 5000 BR SCT033CB 12/10 Q1012 R14/CLRD70 NOSIG RMK QFE761/1014
UATG 190430Z 24002MPS 5000 BR SCT033CB 12/10 Q1012 R14/CLRD70 TEMPO BKN003 RMK QFE761/1014
UATG 190400Z 23003MPS 5000 BR SCT005 11/10 Q1011 R14/CLRD70 TEMPO BKN003 RMK QBB150 QFE760/1014
UATG 190330Z 23002MPS 5000 BR SCT003 10/10 Q1011 R14/CLRD70 TEMPO 0500 FG VV001 RMK QBB090 QFE760/1014
UATG 190300Z 17002MPS 5000 BR SCT003 10/10 Q1011 R14/CLRD70 TEMPO 0500 FG VV001 RMK QBB100 QFE760/1014
UATG 190250Z 19002MPS 170V230 3000 BR SCT003 10/10 Q1011 R14/CLRD70 TEMPO 0500 FG VV001 RMK QBB100 QFE760/1014
UATG 190230Z 20003MPS 1500 R14/1800 BR BKN002 10/10 Q1011 R14/CLRD70 TEMPO 0500 FG VV001 RMK QBB060 QFE760/1014
UATG 190222Z 20002MPS 0800 R14/2000 FG VV001 10/10 Q1011 R14/CLRD70 NOSIG RMK QBB030 QFE760/1014
UATG 190200Z 18002MPS 0400 R14/1100 FG VV001 10/10 Q1011 R14/CLRD70 NOSIG RMK QBB030 QFE760/1013
UATG 190130Z 19002MPS 0600 R14/1600 FG VV001 10/10 Q1011 R14/CLRD70 NOSIG RMK QBB030 QFE760/1014
UATG 190100Z 20002MPS 0100 R14/0350D FG VV001 11/10 Q1011 R14/CLRD70 NOSIG RMK QBB030 QFE760/1014
UATG 190054Z 21002MPS 0300 R14/0900 FG VV001 11/10 Q1011 R14/CLRD70 TEMPO 0200 FG VV001 RMK QBB030 QFE760/1014
UATG 190043Z 19003MPS 0800 R14/2000 FG VV001 11/10 Q1011 R14/CLRD70 TEMPO 0400 FG VV001 RMK QBB030 QFE760/1014
UATG 190030Z 20003MPS 3000 BR OVC002 11/10 Q1011 R14/CLRD70 TEMPO BKN001 RMK QBB060 QFE760/1014
UATG 190000Z 18003MPS 5000 BR BKN002 11/09 Q1011 R14/CLRD70 TEMPO BKN001 RMK QBB060 QFE760/1014
UATG 182330Z 18002MPS 5000 BR BKN003 11/09 Q1011 R14/CLRD70 NOSIG RMK QBB100 QFE760/1014
UATG 182300Z 21002MPS 5000 BR SCT005 11/10 Q1011 R14/CLRD70 NOSIG RMK QBB150 QFE760/1014
UATG 182230Z 24002MPS 5000 BR SCT006 12/10 Q1011 R14/CLRD70 NOSIG RMK QBB180 QFE760/1014
UATG 182200Z 23002MPS 5000 BR BKN005 12/11 Q1011 R14/CLRD70 NOSIG RMK QBB150 QFE760/1014
UATG 182130Z 25002MPS 5000 BR BKN004 12/11 Q1011 R14/CLRD70 NOSIG RMK QBB120 QFE760/1014
UATG 182100Z 23004MPS 5000 BR BKN004 13/11 Q1012 R14/CLRD70 NOSIG RMK QBB140 QFE760/1014
UATG 182030Z 22003MPS 5000 BR SCT005 BKN020CB 13/11 Q1012 R14/CLRD70 NOSIG RMK QBB170 QFE760/1014
UATG 182000Z 24003MPS 9999 SCT004 BKN026CB 13/10 Q1012 R14/CLRD70 NOSIG RMK QBB140 QFE761/1014
UATG 181930Z 22003MPS 9999 SCT005 BKN033CB 13/09 Q1012 R14/CLRD70 NOSIG RMK QBB150 QFE761/1014
UATG 181900Z 19003MPS 9999 SCT006 BKN033CB 13/09 Q1012 R14/CLRD70 NOSIG RMK QBB200 QFE761/1014
UATG 181830Z 20003MPS 9999 SCT005 BKN033CB 13/09 Q1012 R14/CLRD70 NOSIG RMK QBB170 QFE761/1015
UATG 181800Z 21003MPS 9999 SCT004 BKN036CB 13/07 Q1012 R14/CLRD70 NOSIG RMK QBB140 QFE761/1015
UATG 181730Z 21003MPS 9999 SCT006 BKN033CB 12/05 Q1012 R14/CLRD70 NOSIG RMK QBB200 QFE761/1015
UATG 181700Z 21002MPS 9999 SCT033CB 12/04 Q1012 R14/CLRD70 NOSIG RMK QFE761/1015
UATG 181630Z 21003MPS 9999 SCT033CB 12/03 Q1012 R14/CLRD70 NOSIG RMK QFE761/1015
UATG 181600Z 18003MPS 9999 SCT033CB 12/02 Q1012 R14/CLRD70 NOSIG RMK QFE761/1015
UATG 181530Z 19003MPS 9999 SCT033CB 12/01 Q1012 R14/CLRD70 NOSIG RMK QFE761/1015
UATG 181500Z 21002MPS 9999 SCT033CB 13/02 Q1012 R14/CLRD70 NOSIG RMK QFE761/1015
UATG 181430Z 21003MPS 9999 BKN033CB 13/01 Q1012 R14/CLRD70 NOSIG RMK QFE761/1015
UATG 181400Z 16004MPS 9999 BKN033CB 14/01 Q1012 R14/CLRD70 NOSIG RMK QFE761/1014
UATG 181330Z 16004MPS 9999 BKN033CB 14/02 Q1012 R14/CLRD70 NOSIG RMK QFE761/1014
UATG 181300Z 16005MPS 9999 BKN033CB 14/01 Q1012 R14/CLRD70 NOSIG RMK QFE761/1014
UATG 181230Z 18006MPS 9999 -SHRA BKN033CB 15/00 Q1012 R14/CLRD70 NOSIG RMK QFE761/1015
UATG 181200Z 17006MPS 9999 SCT033CB 15/00 Q1012 R14/CLRD70 NOSIG RMK QFE761/1015
UATG 181130Z 17006MPS 9999 SCT033CB 15/00 Q1012 R14/CLRD70 NOSIG RMK QFE761/1015
UATG 181100Z 17007MPS 9999 SCT033CB 15/00 Q1012 R14/CLRD70 NOSIG RMK QFE761/1015
UATG 181030Z 16006MPS 9999 SCT033CB 15/00 Q1012 R14/CLRD70 NOSIG RMK QFE761/1015
UATG 181000Z 17007MPS 9999 SCT033CB 15/01 Q1012 R14/CLRD70 NOSIG RMK QFE761/1015
UATG 180930Z 16007MPS 9999 SCT033CB 16/01 Q1013 R14/CLRD70 NOSIG RMK QFE761/1015
UATG 180900Z 16007MPS 9999 SCT033CB 16/01 Q1013 R14/CLRD70 NOSIG RMK QFE761/1015
UATG 180830Z 15007MPS 9999 SCT033CB 16/01 Q1013 R14/CLRD70 NOSIG RMK QFE762/1016
UATG 180800Z 16007MPS 9999 SCT033CB 15/01 Q1013 R14/CLRD70 NOSIG RMK QFE762/1016
UATG 180730Z 16007MPS 9999 SCT033CB 16/01 Q1014 R14/CLRD70 NOSIG RMK QFE762/1016
UATG 180700Z 16007MPS 9999 SCT033CB 15/02 Q1014 R14/CLRD70 NOSIG RMK QFE762/1016
UATG 180630Z 15007MPS 9999 SCT033CB 15/02 Q1014 R14/CLRD70 NOSIG RMK QFE762/1016
UATG 180600Z 15007MPS 9999 SCT033CB 14/02 Q1014 R14/CLRD70 NOSIG RMK QFE762/1017
UATG 180530Z 14007MPS 9999 SCT033CB 12/02 Q1014 R14/CLRD70 NOSIG RMK QFE762/1016
UATG 180500Z 14007MPS 9999 SCT033CB 11/02 Q1014 R14/CLRD70 NOSIG RMK QFE762/1016
UATG 180430Z 14009MPS 9999 SCT033CB 11/02 Q1014 R14/CLRD70 NOSIG RMK QFE762/1016
UATG 180400Z 14009MPS 9999 SCT033CB 10/02 Q1013 R14/CLRD70 NOSIG RMK QFE762/1016
UATG 180330Z 14008MPS 9999 SCT033CB 10/02 Q1013 R14/CLRD70 NOSIG RMK QFE762/1016
UATG 180300Z 14007MPS CAVOK 10/02 Q1013 R14/CLRD70 NOSIG RMK QFE762/1016
UATG 180230Z 14008MPS CAVOK 10/02 Q1014 R14/CLRD70 NOSIG RMK QFE762/1016
UATG 180200Z 14009MPS CAVOK 11/02 Q1014 R14/CLRD70 NOSIG RMK QFE762/1016
UATG 180130Z 14008MPS CAVOK 11/02 Q1014 R14/CLRD70 NOSIG RMK QFE762/1016
UATG 180100Z 14007MPS CAVOK 10/02 Q1014 R14/CLRD70 NOSIG RMK QFE762/1017
UATG 180030Z 14007MPS CAVOK 10/02 Q1014 R14/CLRD70 NOSIG RMK QFE763/1017
UATG 180000Z 14008MPS CAVOK 11/02 Q1014 R14/CLRD70 NOSIG RMK QFE763/1017
UATG 172330Z 14007MPS CAVOK 11/01 Q1015 R14/CLRD70 NOSIG RMK QFE763/1017
UATG 172300Z 14008MPS CAVOK 11/01 Q1015 R14/CLRD70 NOSIG RMK QFE763/1017
UATG 172230Z 14007MPS CAVOK 11/01 Q1015 R14/CLRD70 NOSIG RMK QFE763/1018
UATG 172200Z 14007MPS CAVOK 12/01 Q1015 R14/CLRD70 NOSIG RMK QFE763/1018
UATG 172130Z 14006MPS CAVOK 12/01 Q1015 R14/CLRD70 NOSIG RMK QFE763/1018
UATG 172100Z 15007MPS CAVOK 12/01 Q1016 R14/CLRD70 NOSIG RMK QFE763/1018
UATG 172030Z 15007MPS CAVOK 12/01 Q1016 R14/CLRD70 NOSIG RMK QFE763/1018
UATG 172000Z 15007MPS CAVOK 13/01 Q1016 R14/CLRD70 NOSIG RMK QFE764/1018
UATG 171930Z 15007MPS CAVOK 13/00 Q1016 R14/CLRD70 NOSIG RMK QFE764/1018
UATG 171900Z 14008MPS CAVOK 14/00 Q1016 R14/CLRD70 NOSIG RMK QFE764/1018
UATG 171830Z 14008MPS CAVOK 14/00 Q1016 R14/CLRD70 NOSIG RMK QFE764/1019
UATG 171800Z 14008MPS CAVOK 15/M00 Q1016 R14/CLRD70 NOSIG RMK QFE764/1019
UATG 171730Z 14009MPS CAVOK 15/M00 Q1016 R14/CLRD70 NOSIG RMK QFE764/1019
UATG 171700Z 14009MPS CAVOK 16/M01 Q1016 R14/CLRD70 NOSIG RMK QFE764/1019
UATG 171630Z 14010MPS CAVOK 16/M01 Q1016 R14/CLRD70 NOSIG RMK QFE764/1019
UATG 171600Z 14009MPS CAVOK 17/M02 Q1016 R14/CLRD70 NOSIG RMK QFE764/1019
UATG 171530Z 13008MPS CAVOK 17/M02 Q1016 R14/CLRD70 NOSIG RMK QFE764/1019